Mount Hersey, Arkansas
Current Conditions -  °F | °C
As of 7:53 PM on Monday 20 Oct 2014 (Local Time) from KHRO Reporting Station
Clear Clear  
Wind Chill: 59°   Ceiling: Unl
Heat Index: 59°   Visibility: 9mi
Dew Point: 58°   Wind: 5mph
Humidity: 96%   Direction: 260°W
Pressure: 30.05"   Gusts: NA
Location:  36.0414°N, 92.9867°W
Report Text: KHRO 210053Z AUTO 26004KT 9SM CLR 15/14 A3005 RMK AO2 SLP172 T01500144
Loading
Personal Weather Stations






























Interactive Weather Map
Tropical Storm Tracking
New forecast layout! Learn more

10-Day Weather Forecast

Advertisements
Track Severe Weather on mobile